KTRK

Details ICAO KTRK (TKF)
Name Truckee Tahoe
Region United States
Timezone America/Los_Angeles (UTC-7.0)
Plans Departing 31
Arriving 40
Stats Elevation 5,900 ft / 1,798 m (AMSL)
Location 39.320042° -120.138942°
Runways 2
Magnetic Variation 13.393° E
Sunrise 2018-05-27 12:39:39 UTC / 2018-05-27 05:39:39 Local
Sunset 2018-05-28 03:18:44 UTC / 2018-05-27 20:18:44 Local
Advertisement - Login to hide

Runways

ID Width Length Bearing (true) Bearing (mag) Surface Threshold Offset Overrun Length
01 75 ft / 23 m 4,653 ft / 1,418 m 29.88° 16.49° Asphalt 0 ft / 0 m 0 ft / 0 m
10 100 ft / 30 m 6,990 ft / 2,131 m 120.08° 106.69° Asphalt 0 ft / 0 m 0 ft / 0 m
19 75 ft / 23 m 4,653 ft / 1,418 m 209.88° 196.49° Asphalt 115 ft / 35 m 0 ft / 0 m
28 100 ft / 30 m 6,990 ft / 2,131 m 300.09° 286.70° Asphalt 0 ft / 0 m 0 ft / 0 m

Map

Weather


0- 5 10 15 20 25 30 35+ Temperature / ° C

Clouds and Precipitation
Forecast for 2018-05-27 12:00 UTC. Updated an hour ago

Ground ~20,000 ft ~40,000 ft Winds

METAR

KTRK 271235Z AUTO 00000KT M1/4SM FG OVC001 01/01 A3013 RMK AO2

TAF

TAF KTRK 271120Z 2712/2812 VRB02KT 2SM BCFG SCT001 BKN004 FM271600 35005KT P6SM FEW050 SCT180 FM272000 02008KT P6SM SCT050 FM280300 VRB03KT P6SM SCT180

Frequencies

Recorded 118.00 MHz AWOS 3
Unicom 122.80 MHz CTAF/UNICOM
Warning: Do not use this data for real-world aviation or navigation. No guarantee of current accuracy is given.